sensor_id;sensor_type;location;lat;lon;timestamp;pressure;altitude;pressure_sealevel;temperature;humidity
11049;BME280;5577;42.706;23.160;2022-12-18T00:01:18;64821.28;;;-141.11;100.00
11049;BME280;5577;42.706;23.160;2022-12-18T00:04:04;64821.28;;;-141.11;100.00
11049;BME280;5577;42.706;23.160;2022-12-18T00:06:49;64821.28;;;-141.11;100.00
11049;BME280;5577;42.706;23.160;2022-12-18T00:09:33;64821.28;;;-141.11;100.00
11049;BME280;5577;42.706;23.160;2022-12-18T00:12:17;64821.28;;;-141.11;100.00
11049;BME280;5577;42.706;23.160;2022-12-18T00:15:01;64821.28;;;-141.11;100.00
11049;BME280;5577;42.706;23.160;2022-12-18T00:17:45;64821.28;;;-141.11;100.00
11049;BME280;5577;42.706;23.160;2022-12-18T00:20:29;64821.28;;;-141.11;100.00
11049;BME280;5577;42.706;23.160;2022-12-18T00:23:13;64821.28;;;-141.11;100.00
11049;BME280;5577;42.706;23.160;2022-12-18T00:26:07;64821.28;;;-141.11;100.00
11049;BME280;5577;42.706;23.160;2022-12-18T00:28:52;64821.28;;;-141.11;100.00
11049;BME280;5577;42.706;23.160;2022-12-18T00:31:37;64821.28;;;-141.11;100.00
11049;BME280;5577;42.706;23.160;2022-12-18T00:34:21;64821.28;;;-141.11;100.00
11049;BME280;5577;42.706;23.160;2022-12-18T00:37:05;64821.28;;;-141.11;100.00
11049;BME280;5577;42.706;23.160;2022-12-18T00:39:49;64821.28;;;-141.11;100.00
11049;BME280;5577;42.706;23.160;2022-12-18T00:42:35;64821.28;;;-141.11;100.00
11049;BME280;5577;42.706;23.160;2022-12-18T00:45:38;64821.28;;;-141.11;100.00
11049;BME280;5577;42.706;23.160;2022-12-18T00:48:21;64821.28;;;-141.11;100.00
11049;BME280;5577;42.706;23.160;2022-12-18T00:51:05;64821.28;;;-141.11;100.00
11049;BME280;5577;42.706;23.160;2022-12-18T00:53:50;64821.28;;;-141.11;100.00
11049;BME280;5577;42.706;23.160;2022-12-18T00:56:36;64821.28;;;-141.11;100.00
11049;BME280;5577;42.706;23.160;2022-12-18T00:59:20;64821.28;;;-141.11;100.00
11049;BME280;5577;42.706;23.160;2022-12-18T01:02:04;64821.28;;;-141.11;100.00
11049;BME280;5577;42.706;23.160;2022-12-18T01:04:48;64821.28;;;-141.11;100.00
11049;BME280;5577;42.706;23.160;2022-12-18T01:07:32;64821.28;;;-141.11;100.00
11049;BME280;5577;42.706;23.160;2022-12-18T01:10:16;64821.28;;;-141.11;100.00
11049;BME280;5577;42.706;23.160;2022-12-18T01:13:00;64821.28;;;-141.11;100.00
11049;BME280;5577;42.706;23.160;2022-12-18T01:15:49;64821.28;;;-141.11;100.00
11049;BME280;5577;42.706;23.160;2022-12-18T01:18:33;64821.28;;;-141.11;100.00
11049;BME280;5577;42.706;23.160;2022-12-18T01:21:17;64821.28;;;-141.11;100.00
11049;BME280;5577;42.706;23.160;2022-12-18T01:24:01;64821.28;;;-141.11;100.00
11049;BME280;5577;42.706;23.160;2022-12-18T01:26:45;64821.28;;;-141.11;100.00
11049;BME280;5577;42.706;23.160;2022-12-18T01:29:29;64821.28;;;-141.11;100.00
11049;BME280;5577;42.706;23.160;2022-12-18T01:32:13;64821.28;;;-141.11;100.00
11049;BME280;5577;42.706;23.160;2022-12-18T01:34:57;64821.28;;;-141.11;100.00
11049;BME280;5577;42.706;23.160;2022-12-18T01:37:41;64821.28;;;-141.11;100.00
11049;BME280;5577;42.706;23.160;2022-12-18T01:40:25;64821.28;;;-141.11;100.00
11049;BME280;5577;42.706;23.160;2022-12-18T01:43:09;64821.28;;;-141.11;100.00
11049;BME280;5577;42.706;23.160;2022-12-18T01:45:53;64821.28;;;-141.11;100.00
11049;BME280;5577;42.706;23.160;2022-12-18T01:48:38;64821.28;;;-141.11;100.00
11049;BME280;5577;42.706;23.160;2022-12-18T01:51:23;64821.28;;;-141.11;100.00
11049;BME280;5577;42.706;23.160;2022-12-18T01:54:07;64821.28;;;-141.11;100.00
11049;BME280;5577;42.706;23.160;2022-12-18T01:56:52;64821.28;;;-141.11;100.00
11049;BME280;5577;42.706;23.160;2022-12-18T01:59:36;64821.28;;;-141.11;100.00
11049;BME280;5577;42.706;23.160;2022-12-18T02:02:20;64821.28;;;-141.11;100.00
11049;BME280;5577;42.706;23.160;2022-12-18T02:05:05;95016.63;;;5.99;100.00
11049;BME280;5577;42.706;23.160;2022-12-18T02:29:16;64821.28;;;-141.11;100.00
11049;BME280;5577;42.706;23.160;2022-12-18T02:32:04;64821.28;;;-141.11;100.00
11049;BME280;5577;42.706;23.160;2022-12-18T02:34:51;64821.28;;;-141.11;100.00
11049;BME280;5577;42.706;23.160;2022-12-18T02:37:39;95045.63;;;5.94;100.00
11049;BME280;5577;42.706;23.160;2022-12-18T02:40:27;95035.97;;;5.76;100.00
11049;BME280;5577;42.706;23.160;2022-12-18T02:43:14;95048.72;;;5.69;100.00
11049;BME280;5577;42.706;23.160;2022-12-18T02:46:00;95050.75;;;5.72;100.00
11049;BME280;5577;42.706;23.160;2022-12-18T03:01:50;95066.19;;;5.06;100.00
11049;BME280;5577;42.706;23.160;2022-12-18T03:04:59;64821.28;;;-141.11;100.00
11049;BME280;5577;42.706;23.160;2022-12-18T03:10:45;64821.28;;;-141.11;100.00
11049;BME280;5577;42.706;23.160;2022-12-18T03:16:25;95080.91;;;5.02;100.00
11049;BME280;5577;42.706;23.160;2022-12-18T03:19:15;95044.06;;;4.61;100.00
11049;BME280;5577;42.706;23.160;2022-12-18T03:22:02;95083.13;;;4.95;100.00
11049;BME280;5577;42.706;23.160;2022-12-18T03:24:48;95081.28;;;4.95;100.00
11049;BME280;5577;42.706;23.160;2022-12-18T03:27:33;95102.13;;;5.05;100.00
11049;BME280;5577;42.706;23.160;2022-12-18T03:30:19;95100.59;;;5.18;100.00
11049;BME280;5577;42.706;23.160;2022-12-18T03:33:10;95094.16;;;5.10;100.00
11049;BME280;5577;42.706;23.160;2022-12-18T03:35:56;95109.59;;;4.98;100.00
11049;BME280;5577;42.706;23.160;2022-12-18T03:38:40;95112.47;;;4.83;100.00
11049;BME280;5577;42.706;23.160;2022-12-18T03:41:43;95096.78;;;4.78;100.00
11049;BME280;5577;42.706;23.160;2022-12-18T03:47:49;95126.63;;;4.82;100.00
11049;BME280;5577;42.706;23.160;2022-12-18T03:54:02;95124.50;;;4.66;100.00
11049;BME280;5577;42.706;23.160;2022-12-18T03:56:54;95122.97;;;4.65;100.00
11049;BME280;5577;42.706;23.160;2022-12-18T03:59:41;95139.16;;;4.67;100.00
11049;BME280;5577;42.706;23.160;2022-12-18T04:02:26;95138.75;;;4.78;100.00
11049;BME280;5577;42.706;23.160;2022-12-18T04:05:12;94910.25;;;3.28;100.00
11049;BME280;5577;42.706;23.160;2022-12-18T04:07:57;95135.84;;;4.61;100.00
11049;BME280;5577;42.706;23.160;2022-12-18T04:10:41;95135.91;;;4.38;100.00
11049;BME280;5577;42.706;23.160;2022-12-18T04:13:34;95134.22;;;4.28;100.00
11049;BME280;5577;42.706;23.160;2022-12-18T04:16:19;95136.91;;;4.42;100.00
11049;BME280;5577;42.706;23.160;2022-12-18T04:19:03;95136.91;;;4.42;100.00
11049;BME280;5577;42.706;23.160;2022-12-18T04:21:47;95143.94;;;4.46;100.00
11049;BME280;5577;42.706;23.160;2022-12-18T04:24:31;95125.34;;;4.24;100.00
11049;BME280;5577;42.706;23.160;2022-12-18T04:27:15;95153.41;;;4.42;100.00
11049;BME280;5577;42.706;23.160;2022-12-18T04:29:59;95158.03;;;4.50;100.00
11049;BME280;5577;42.706;23.160;2022-12-18T04:32:43;95154.91;;;4.67;100.00
11049;BME280;5577;42.706;23.160;2022-12-18T04:35:27;95162.34;;;4.78;100.00
11049;BME280;5577;42.706;23.160;2022-12-18T04:38:11;95160.56;;;4.74;100.00
11049;BME280;5577;42.706;23.160;2022-12-18T04:40:55;95177.03;;;4.79;100.00
11049;BME280;5577;42.706;23.160;2022-12-18T04:43:39;95181.78;;;4.77;100.00
11049;BME280;5577;42.706;23.160;2022-12-18T04:46:23;95185.47;;;4.95;100.00
11049;BME280;5577;42.706;23.160;2022-12-18T04:49:07;95133.88;;;4.72;100.00
11049;BME280;5577;42.706;23.160;2022-12-18T04:51:51;95163.63;;;4.81;100.00
11049;BME280;5577;42.706;23.160;2022-12-18T04:54:36;95198.28;;;5.15;100.00
11049;BME280;5577;42.706;23.160;2022-12-18T04:57:20;95198.00;;;5.16;100.00
11049;BME280;5577;42.706;23.160;2022-12-18T05:00:05;95187.38;;;5.08;100.00
11049;BME280;5577;42.706;23.160;2022-12-18T05:02:50;95197.50;;;5.14;100.00
11049;BME280;5577;42.706;23.160;2022-12-18T05:05:37;95194.91;;;4.96;100.00
11049;BME280;5577;42.706;23.160;2022-12-18T05:08:21;95199.88;;;4.79;100.00
11049;BME280;5577;42.706;23.160;2022-12-18T05:11:11;64821.28;;;-141.11;100.00
11049;BME280;5577;42.706;23.160;2022-12-18T05:13:55;64821.28;;;-141.11;100.00
11049;BME280;5577;42.706;23.160;2022-12-18T05:16:39;64821.28;;;-141.11;100.00
11049;BME280;5577;42.706;23.160;2022-12-18T05:19:23;64821.28;;;-141.11;100.00
11049;BME280;5577;42.706;23.160;2022-12-18T05:22:07;95197.25;;;4.79;100.00
11049;BME280;5577;42.706;23.160;2022-12-18T05:24:52;95232.50;;;4.91;100.00
11049;BME280;5577;42.706;23.160;2022-12-18T05:27:35;95225.94;;;4.70;100.00
11049;BME280;5577;42.706;23.160;2022-12-18T05:30:19;95236.09;;;4.77;100.00
11049;BME280;5577;42.706;23.160;2022-12-18T05:33:03;95241.41;;;4.72;100.00
11049;BME280;5577;42.706;23.160;2022-12-18T05:35:51;95174.16;;;4.20;100.00
11049;BME280;5577;42.706;23.160;2022-12-18T05:38:38;95245.78;;;4.58;100.00
11049;BME280;5577;42.706;23.160;2022-12-18T05:41:22;95245.47;;;4.41;100.00
11049;BME280;5577;42.706;23.160;2022-12-18T05:44:06;95260.53;;;4.54;100.00
11049;BME280;5577;42.706;23.160;2022-12-18T05:46:49;95264.06;;;4.63;100.00
11049;BME280;5577;42.706;23.160;2022-12-18T05:49:33;95267.84;;;4.75;100.00
11049;BME280;5577;42.706;23.160;2022-12-18T05:52:17;95264.91;;;4.82;100.00
11049;BME280;5577;42.706;23.160;2022-12-18T05:55:01;95268.19;;;4.69;100.00
11049;BME280;5577;42.706;23.160;2022-12-18T05:57:45;95260.22;;;4.32;100.00
11049;BME280;5577;42.706;23.160;2022-12-18T06:00:29;95271.16;;;4.39;100.00
11049;BME280;5577;42.706;23.160;2022-12-18T06:03:14;95284.94;;;4.26;100.00
11049;BME280;5577;42.706;23.160;2022-12-18T06:05:58;95286.56;;;4.22;100.00
11049;BME280;5577;42.706;23.160;2022-12-18T06:08:42;95283.53;;;4.10;100.00
11049;BME280;5577;42.706;23.160;2022-12-18T06:11:26;95288.41;;;4.21;100.00
11049;BME280;5577;42.706;23.160;2022-12-18T06:14:10;95286.31;;;4.18;100.00
11049;BME280;5577;42.706;23.160;2022-12-18T06:16:54;95295.38;;;3.74;100.00
11049;BME280;5577;42.706;23.160;2022-12-18T06:19:38;95290.09;;;3.79;100.00
11049;BME280;5577;42.706;23.160;2022-12-18T06:22:22;95306.75;;;3.93;100.00
11049;BME280;5577;42.706;23.160;2022-12-18T06:25:07;95294.97;;;3.90;100.00
11049;BME280;5577;42.706;23.160;2022-12-18T06:27:51;95301.94;;;4.05;100.00
11049;BME280;5577;42.706;23.160;2022-12-18T06:30:35;95301.84;;;4.15;100.00
11049;BME280;5577;42.706;23.160;2022-12-18T06:33:20;95308.66;;;4.11;100.00
11049;BME280;5577;42.706;23.160;2022-12-18T06:36:11;95310.44;;;4.20;100.00
11049;BME280;5577;42.706;23.160;2022-12-18T06:38:56;95257.03;;;3.88;100.00
11049;BME280;5577;42.706;23.160;2022-12-18T06:41:41;95314.34;;;4.18;100.00
11049;BME280;5577;42.706;23.160;2022-12-18T06:44:24;95324.28;;;4.21;100.00
11049;BME280;5577;42.706;23.160;2022-12-18T06:47:09;95331.34;;;4.25;100.00
11049;BME280;5577;42.706;23.160;2022-12-18T06:49:52;95325.75;;;4.32;100.00
11049;BME280;5577;42.706;23.160;2022-12-18T06:52:36;95331.19;;;4.40;100.00
11049;BME280;5577;42.706;23.160;2022-12-18T06:55:21;95333.81;;;4.40;100.00
11049;BME280;5577;42.706;23.160;2022-12-18T06:58:06;95329.09;;;4.37;100.00
11049;BME280;5577;42.706;23.160;2022-12-18T07:00:50;95332.34;;;4.53;100.00
11049;BME280;5577;42.706;23.160;2022-12-18T07:03:34;95330.53;;;4.77;100.00
11049;BME280;5577;42.706;23.160;2022-12-18T07:06:20;95330.75;;;4.80;100.00
11049;BME280;5577;42.706;23.160;2022-12-18T07:09:04;95328.91;;;4.81;100.00
11049;BME280;5577;42.706;23.160;2022-12-18T07:11:48;95339.06;;;4.87;100.00
11049;BME280;5577;42.706;23.160;2022-12-18T07:14:32;95345.69;;;5.03;100.00
11049;BME280;5577;42.706;23.160;2022-12-18T07:17:16;95351.25;;;5.20;100.00
11049;BME280;5577;42.706;23.160;2022-12-18T07:20:00;95338.78;;;5.31;100.00
11049;BME280;5577;42.706;23.160;2022-12-18T07:22:44;95341.03;;;5.19;100.00
11049;BME280;5577;42.706;23.160;2022-12-18T07:25:28;95348.94;;;4.95;100.00
11049;BME280;5577;42.706;23.160;2022-12-18T07:28:12;95344.81;;;4.89;100.00
11049;BME280;5577;42.706;23.160;2022-12-18T07:30:56;95334.97;;;5.00;100.00
11049;BME280;5577;42.706;23.160;2022-12-18T07:33:40;95349.53;;;5.11;100.00
11049;BME280;5577;42.706;23.160;2022-12-18T07:36:25;95354.09;;;5.24;100.00
11049;BME280;5577;42.706;23.160;2022-12-18T07:39:11;95345.91;;;5.07;100.00
11049;BME280;5577;42.706;23.160;2022-12-18T07:41:55;95355.41;;;5.21;100.00
11049;BME280;5577;42.706;23.160;2022-12-18T07:45:01;95353.88;;;5.20;100.00
11049;BME280;5577;42.706;23.160;2022-12-18T07:47:46;95368.69;;;5.30;100.00
11049;BME280;5577;42.706;23.160;2022-12-18T07:50:30;95359.28;;;5.29;100.00
11049;BME280;5577;42.706;23.160;2022-12-18T07:53:14;95368.94;;;5.33;100.00
11049;BME280;5577;42.706;23.160;2022-12-18T07:56:00;95371.75;;;5.18;100.00
11049;BME280;5577;42.706;23.160;2022-12-18T07:58:45;95379.03;;;5.21;100.00
11049;BME280;5577;42.706;23.160;2022-12-18T08:01:29;95384.56;;;5.20;100.00
11049;BME280;5577;42.706;23.160;2022-12-18T08:04:13;95389.16;;;5.33;100.00
11049;BME280;5577;42.706;23.160;2022-12-18T08:06:57;95389.88;;;5.38;100.00
11049;BME280;5577;42.706;23.160;2022-12-18T08:09:41;95389.66;;;5.35;100.00
11049;BME280;5577;42.706;23.160;2022-12-18T08:12:25;95391.28;;;5.31;100.00
11049;BME280;5577;42.706;23.160;2022-12-18T08:15:09;95383.47;;;5.26;100.00
11049;BME280;5577;42.706;23.160;2022-12-18T08:17:56;95400.28;;;5.25;100.00
11049;BME280;5577;42.706;23.160;2022-12-18T08:20:40;95403.38;;;5.08;100.00
11049;BME280;5577;42.706;23.160;2022-12-18T08:23:24;95403.75;;;5.20;100.00
11049;BME280;5577;42.706;23.160;2022-12-18T08:26:09;95408.66;;;5.03;100.00
11049;BME280;5577;42.706;23.160;2022-12-18T08:28:55;95401.47;;;5.14;100.00
11049;BME280;5577;42.706;23.160;2022-12-18T08:31:39;95415.31;;;5.19;100.00
11049;BME280;5577;42.706;23.160;2022-12-18T08:34:23;95346.50;;;4.80;100.00
11049;BME280;5577;42.706;23.160;2022-12-18T08:37:07;95413.97;;;5.22;100.00
11049;BME280;5577;42.706;23.160;2022-12-18T08:39:51;95408.09;;;5.30;100.00
11049;BME280;5577;42.706;23.160;2022-12-18T08:42:34;95424.94;;;5.47;100.00
11049;BME280;5577;42.706;23.160;2022-12-18T08:45:38;95422.59;;;5.46;100.00
11049;BME280;5577;42.706;23.160;2022-12-18T08:48:21;95432.84;;;5.47;100.00
11049;BME280;5577;42.706;23.160;2022-12-18T08:51:05;95423.72;;;5.40;100.00
11049;BME280;5577;42.706;23.160;2022-12-18T08:53:49;95421.81;;;5.45;100.00
11049;BME280;5577;42.706;23.160;2022-12-18T08:56:34;95425.94;;;5.51;100.00
11049;BME280;5577;42.706;23.160;2022-12-18T08:59:18;95419.19;;;5.45;100.00
11049;BME280;5577;42.706;23.160;2022-12-18T09:02:02;95418.97;;;5.42;100.00
11049;BME280;5577;42.706;23.160;2022-12-18T09:04:47;95395.94;;;5.34;100.00
11049;BME280;5577;42.706;23.160;2022-12-18T09:07:31;95414.31;;;5.57;100.00
11049;BME280;5577;42.706;23.160;2022-12-18T09:10:15;95413.03;;;5.73;100.00
11049;BME280;5577;42.706;23.160;2022-12-18T09:12:59;95426.75;;;5.52;100.00
11049;BME280;5577;42.706;23.160;2022-12-18T09:15:49;95423.88;;;5.48;100.00
11049;BME280;5577;42.706;23.160;2022-12-18T09:18:33;95419.91;;;5.32;100.00
11049;BME280;5577;42.706;23.160;2022-12-18T09:21:18;95408.78;;;5.17;100.00
11049;BME280;5577;42.706;23.160;2022-12-18T09:24:03;95342.63;;;4.96;100.00
11049;BME280;5577;42.706;23.160;2022-12-18T09:26:48;95420.84;;;5.60;100.00
11049;BME280;5577;42.706;23.160;2022-12-18T09:29:32;95419.91;;;5.69;100.00
11049;BME280;5577;42.706;23.160;2022-12-18T09:32:16;95422.78;;;5.73;100.00
11049;BME280;5577;42.706;23.160;2022-12-18T09:35:00;95413.16;;;5.87;100.00
11049;BME280;5577;42.706;23.160;2022-12-18T09:37:45;95422.84;;;5.68;100.00
11049;BME280;5577;42.706;23.160;2022-12-18T09:40:35;95419.88;;;5.74;100.00
11049;BME280;5577;42.706;23.160;2022-12-18T09:43:40;95423.53;;;5.73;100.00
11049;BME280;5577;42.706;23.160;2022-12-18T09:46:30;95417.63;;;5.86;100.00
11049;BME280;5577;42.706;23.160;2022-12-18T09:49:18;95418.59;;;5.90;100.00
11049;BME280;5577;42.706;23.160;2022-12-18T09:52:09;95416.72;;;5.72;100.00
11049;BME280;5577;42.706;23.160;2022-12-18T09:58:15;95407.78;;;5.73;100.00
11049;BME280;5577;42.706;23.160;2022-12-18T10:01:00;95409.81;;;5.58;100.00
11049;BME280;5577;42.706;23.160;2022-12-18T10:03:44;95416.06;;;5.62;100.00
11049;BME280;5577;42.706;23.160;2022-12-18T10:06:32;95417.22;;;5.56;100.00
11049;BME280;5577;42.706;23.160;2022-12-18T10:09:28;95414.75;;;5.64;100.00
11049;BME280;5577;42.706;23.160;2022-12-18T10:12:25;95416.38;;;5.79;100.00
11049;BME280;5577;42.706;23.160;2022-12-18T10:18:26;95420.44;;;6.09;100.00
11049;BME280;5577;42.706;23.160;2022-12-18T10:21:18;95411.41;;;6.15;100.00
11049;BME280;5577;42.706;23.160;2022-12-18T10:27:14;95432.41;;;5.82;100.00
11049;BME280;5577;42.706;23.160;2022-12-18T10:30:03;95429.78;;;5.77;100.00
11049;BME280;5577;42.706;23.160;2022-12-18T10:32:48;95431.59;;;6.01;100.00
11049;BME280;5577;42.706;23.160;2022-12-18T10:35:32;95423.06;;;6.09;100.00
11049;BME280;5577;42.706;23.160;2022-12-18T10:41:05;95421.19;;;5.96;100.00
11049;BME280;5577;42.706;23.160;2022-12-18T10:44:16;95422.44;;;5.98;100.00
11049;BME280;5577;42.706;23.160;2022-12-18T10:47:06;95410.06;;;5.98;100.00
11049;BME280;5577;42.706;23.160;2022-12-18T10:49:54;95409.59;;;5.97;100.00
11049;BME280;5577;42.706;23.160;2022-12-18T10:52:39;95416.75;;;6.10;100.00
11049;BME280;5577;42.706;23.160;2022-12-18T10:55:26;95413.34;;;6.09;100.00
11049;BME280;5577;42.706;23.160;2022-12-18T10:58:31;95413.28;;;5.96;100.00
11049;BME280;5577;42.706;23.160;2022-12-18T11:01:18;95423.16;;;5.85;100.00
11049;BME280;5577;42.706;23.160;2022-12-18T11:04:08;95412.59;;;5.66;100.00
11049;BME280;5577;42.706;23.160;2022-12-18T11:09:41;95410.63;;;5.77;100.00
11049;BME280;5577;42.706;23.160;2022-12-18T11:12:28;95412.13;;;6.02;100.00
11049;BME280;5577;42.706;23.160;2022-12-18T11:15:21;95417.09;;;5.84;100.00
11049;BME280;5577;42.706;23.160;2022-12-18T11:21:11;95390.66;;;5.76;100.00
11049;BME280;5577;42.706;23.160;2022-12-18T11:23:56;95422.06;;;5.86;100.00
11049;BME280;5577;42.706;23.160;2022-12-18T11:26:40;95415.88;;;5.77;100.00
11049;BME280;5577;42.706;23.160;2022-12-18T11:29:33;95433.59;;;5.90;100.00
11049;BME280;5577;42.706;23.160;2022-12-18T11:32:29;95425.50;;;5.86;100.00
11049;BME280;5577;42.706;23.160;2022-12-18T11:35:22;95390.78;;;5.29;100.00
11049;BME280;5577;42.706;23.160;2022-12-18T11:41:29;95426.50;;;5.48;100.00
11049;BME280;5577;42.706;23.160;2022-12-18T11:45:00;95425.59;;;5.39;100.00
11049;BME280;5577;42.706;23.160;2022-12-18T11:47:54;95424.00;;;5.38;100.00
11049;BME280;5577;42.706;23.160;2022-12-18T11:53:32;95424.44;;;5.45;100.00
11049;BME280;5577;42.706;23.160;2022-12-18T11:56:35;95416.00;;;5.48;100.00
11049;BME280;5577;42.706;23.160;2022-12-18T12:05:24;95419.66;;;5.71;100.00
11049;BME280;5577;42.706;23.160;2022-12-18T12:26:48;95425.88;;;5.56;100.00
11049;BME280;5577;42.706;23.160;2022-12-18T12:35:55;95402.38;;;5.46;100.00
11049;BME280;5577;42.706;23.160;2022-12-18T12:38:52;95411.69;;;5.57;100.00
11049;BME280;5577;42.706;23.160;2022-12-18T12:41:38;95408.69;;;5.64;100.00
11049;BME280;5577;42.706;23.160;2022-12-18T12:44:47;95424.19;;;5.65;100.00
11049;BME280;5577;42.706;23.160;2022-12-18T12:47:38;95436.53;;;5.65;100.00
11049;BME280;5577;42.706;23.160;2022-12-18T12:50:24;95429.22;;;5.62;100.00
11049;BME280;5577;42.706;23.160;2022-12-18T12:53:21;95427.00;;;5.50;100.00
11049;BME280;5577;42.706;23.160;2022-12-18T12:56:07;95430.56;;;5.59;100.00
11049;BME280;5577;42.706;23.160;2022-12-18T13:01:49;95426.59;;;5.62;100.00
11049;BME280;5577;42.706;23.160;2022-12-18T13:07:49;95378.88;;;5.36;100.00
11049;BME280;5577;42.706;23.160;2022-12-18T13:10:39;95446.47;;;5.68;100.00
11049;BME280;5577;42.706;23.160;2022-12-18T13:13:24;95444.59;;;5.50;100.00
11049;BME280;5577;42.706;23.160;2022-12-18T13:16:08;95445.84;;;5.57;100.00
11049;BME280;5577;42.706;23.160;2022-12-18T13:18:55;95451.97;;;5.71;100.00
11049;BME280;5577;42.706;23.160;2022-12-18T13:21:52;95443.28;;;5.71;100.00
11049;BME280;5577;42.706;23.160;2022-12-18T13:24:37;95449.44;;;5.85;100.00
11049;BME280;5577;42.706;23.160;2022-12-18T13:38:47;95469.03;;;5.69;100.00
11049;BME280;5577;42.706;23.160;2022-12-18T13:41:30;95472.75;;;5.68;100.00
11049;BME280;5577;42.706;23.160;2022-12-18T13:44:32;95472.41;;;5.74;100.00
11049;BME280;5577;42.706;23.160;2022-12-18T13:47:36;95445.59;;;5.54;100.00
11049;BME280;5577;42.706;23.160;2022-12-18T13:50:25;95475.94;;;5.65;100.00
11049;BME280;5577;42.706;23.160;2022-12-18T13:53:21;95474.31;;;5.69;100.00
11049;BME280;5577;42.706;23.160;2022-12-18T13:56:07;95490.28;;;5.72;100.00
11049;BME280;5577;42.706;23.160;2022-12-18T14:01:59;95480.97;;;5.61;100.00
11049;BME280;5577;42.706;23.160;2022-12-18T14:04:48;95480.81;;;5.53;100.00
11049;BME280;5577;42.706;23.160;2022-12-18T14:07:32;95488.09;;;5.37;100.00
11049;BME280;5577;42.706;23.160;2022-12-18T14:10:16;95504.41;;;5.34;100.00
11049;BME280;5577;42.706;23.160;2022-12-18T14:13:06;95482.03;;;5.37;100.00
11049;BME280;5577;42.706;23.160;2022-12-18T14:15:52;95495.72;;;5.34;100.00
11049;BME280;5577;42.706;23.160;2022-12-18T14:18:53;95482.38;;;5.07;100.00
11049;BME280;5577;42.706;23.160;2022-12-18T14:21:39;95492.94;;;5.02;100.00
11049;BME280;5577;42.706;23.160;2022-12-18T14:24:23;95479.88;;;4.97;100.00
11049;BME280;5577;42.706;23.160;2022-12-18T14:27:24;95487.38;;;5.08;100.00
11049;BME280;5577;42.706;23.160;2022-12-18T14:36:00;95503.41;;;5.02;100.00
11049;BME280;5577;42.706;23.160;2022-12-18T14:38:51;95455.22;;;4.69;100.00
11049;BME280;5577;42.706;23.160;2022-12-18T14:41:37;95471.91;;;4.78;100.00
11049;BME280;5577;42.706;23.160;2022-12-18T14:44:21;95482.94;;;4.75;100.00
11049;BME280;5577;42.706;23.160;2022-12-18T14:47:14;95490.25;;;4.83;100.00
11049;BME280;5577;42.706;23.160;2022-12-18T14:49:58;95493.13;;;4.82;100.00
11049;BME280;5577;42.706;23.160;2022-12-18T14:52:43;95499.59;;;4.89;100.00
11049;BME280;5577;42.706;23.160;2022-12-18T14:55:27;95502.19;;;4.94;100.00
11049;BME280;5577;42.706;23.160;2022-12-18T14:58:14;95498.97;;;5.02;100.00
11049;BME280;5577;42.706;23.160;2022-12-18T15:00:59;95504.31;;;4.92;100.00
11049;BME280;5577;42.706;23.160;2022-12-18T15:03:43;95491.59;;;4.76;100.00
11049;BME280;5577;42.706;23.160;2022-12-18T15:09:25;95504.47;;;4.72;100.00
11049;BME280;5577;42.706;23.160;2022-12-18T15:12:34;95502.00;;;4.86;100.00
11049;BME280;5577;42.706;23.160;2022-12-18T15:18:29;95509.34;;;4.89;100.00
11049;BME280;5577;42.706;23.160;2022-12-18T15:21:18;95514.88;;;4.87;100.00
11049;BME280;5577;42.706;23.160;2022-12-18T15:24:02;95510.97;;;4.85;100.00
11049;BME280;5577;42.706;23.160;2022-12-18T15:26:47;95521.75;;;4.78;100.00
11049;BME280;5577;42.706;23.160;2022-12-18T15:29:31;95512.66;;;4.71;100.00
11049;BME280;5577;42.706;23.160;2022-12-18T15:32:20;95479.84;;;4.40;100.00
11049;BME280;5577;42.706;23.160;2022-12-18T15:35:21;95525.75;;;4.71;100.00
11049;BME280;5577;42.706;23.160;2022-12-18T15:38:06;95525.47;;;4.72;100.00
11049;BME280;5577;42.706;23.160;2022-12-18T15:40:51;95526.94;;;4.55;100.00
11049;BME280;5577;42.706;23.160;2022-12-18T15:43:37;95495.66;;;4.25;100.00
11049;BME280;5577;42.706;23.160;2022-12-18T15:46:23;95542.25;;;4.38;100.00
11049;BME280;5577;42.706;23.160;2022-12-18T15:49:07;95555.13;;;4.34;100.00
11049;BME280;5577;42.706;23.160;2022-12-18T15:51:57;95557.13;;;4.47;100.00
11049;BME280;5577;42.706;23.160;2022-12-18T15:54:43;95558.47;;;4.45;100.00
11049;BME280;5577;42.706;23.160;2022-12-18T15:57:45;95562.09;;;4.49;100.00
11049;BME280;5577;42.706;23.160;2022-12-18T16:00:31;95561.56;;;4.52;100.00
11049;BME280;5577;42.706;23.160;2022-12-18T16:03:15;95567.63;;;4.47;100.00
11049;BME280;5577;42.706;23.160;2022-12-18T16:05:59;95573.34;;;4.54;100.00
11049;BME280;5577;42.706;23.160;2022-12-18T16:08:45;95576.81;;;4.45;100.00
11049;BME280;5577;42.706;23.160;2022-12-18T16:11:32;95568.25;;;4.29;100.00
11049;BME280;5577;42.706;23.160;2022-12-18T16:14:26;95584.25;;;4.33;100.00
11049;BME280;5577;42.706;23.160;2022-12-18T16:17:12;95581.09;;;4.31;100.00
11049;BME280;5577;42.706;23.160;2022-12-18T16:19:56;95577.19;;;4.23;100.00
11049;BME280;5577;42.706;23.160;2022-12-18T16:22:42;95558.09;;;4.23;100.00
11049;BME280;5577;42.706;23.160;2022-12-18T16:25:30;95581.41;;;4.24;100.00
11049;BME280;5577;42.706;23.160;2022-12-18T16:28:14;95583.81;;;4.16;100.00
11049;BME280;5577;42.706;23.160;2022-12-18T16:30:59;95580.16;;;4.12;100.00
11049;BME280;5577;42.706;23.160;2022-12-18T16:33:42;95581.75;;;4.08;100.00
11049;BME280;5577;42.706;23.160;2022-12-18T16:36:26;95585.41;;;4.07;100.00
11049;BME280;5577;42.706;23.160;2022-12-18T16:39:10;95590.66;;;4.07;100.00
11049;BME280;5577;42.706;23.160;2022-12-18T16:41:54;95603.03;;;3.96;100.00
11049;BME280;5577;42.706;23.160;2022-12-18T16:44:38;95600.44;;;3.86;100.00
11049;BME280;5577;42.706;23.160;2022-12-18T16:47:22;95607.50;;;3.86;100.00
11049;BME280;5577;42.706;23.160;2022-12-18T16:50:06;95553.47;;;3.36;100.00
11049;BME280;5577;42.706;23.160;2022-12-18T16:52:50;95625.88;;;3.81;100.00